createdAt,value
2022-10-19T00:02:17.583Z,16.19
2022-10-19T00:05:19.054Z,16.21
2022-10-19T00:08:20.591Z,16.22
2022-10-19T00:11:23.689Z,16.26
2022-10-19T00:14:25.224Z,16.24
2022-10-19T00:17:26.628Z,16.22
2022-10-19T00:20:28.058Z,16.23
2022-10-19T00:23:29.538Z,16.29
2022-10-19T00:26:31.347Z,16.29
2022-10-19T00:29:32.821Z,16.32
2022-10-19T00:32:34.376Z,16.28
2022-10-19T00:35:40.230Z,16.28
2022-10-19T00:38:42.202Z,16.18
2022-10-19T00:41:45.996Z,16.08
2022-10-19T00:44:47.309Z,16.15
2022-10-19T00:47:49.993Z,16.19
2022-10-19T00:50:54.226Z,16.21
2022-10-19T00:53:56.609Z,16.26
2022-10-19T00:56:58.939Z,16.25
2022-10-19T01:00:04.372Z,16.27
2022-10-19T01:03:06.821Z,16.26
2022-10-19T01:06:08.710Z,16.26
2022-10-19T01:09:10.182Z,16.24
2022-10-19T01:12:26.613Z,16.16
2022-10-19T01:15:36.046Z,16.16
2022-10-19T01:18:50.645Z,16.11
2022-10-19T01:22:13.986Z,16.07
2022-10-19T01:25:40.681Z,16.09
2022-10-19T01:29:03.463Z,16.15
2022-10-19T01:32:23.706Z,16.11
2022-10-19T01:35:55.557Z,16.11
2022-10-19T01:39:11.342Z,15.92
2022-10-19T01:42:19.193Z,15.81
2022-10-19T01:45:47.285Z,15.85
2022-10-19T01:48:55.222Z,15.75
2022-10-19T01:52:00.607Z,15.68
2022-10-19T01:55:04.290Z,15.74
2022-10-19T01:58:09.614Z,15.76
2022-10-19T02:01:13.443Z,15.73
2022-10-19T02:04:18.950Z,15.76
2022-10-19T02:07:22.719Z,15.72
2022-10-19T02:10:25.594Z,15.68
2022-10-19T02:13:29.167Z,15.53
2022-10-19T02:16:39.391Z,15.47
2022-10-19T02:19:41.678Z,15.43
2022-10-19T02:22:43.485Z,15.43
2022-10-19T02:25:45.002Z,15.40
2022-10-19T02:28:47.038Z,15.39
2022-10-19T02:31:49.095Z,15.39
2022-10-19T02:34:50.483Z,15.32
2022-10-19T02:37:51.887Z,15.34
2022-10-19T02:41:07.122Z,15.38
2022-10-19T02:44:31.155Z,15.30
2022-10-19T02:47:38.685Z,15.28
2022-10-19T02:50:44.042Z,15.29
2022-10-19T02:53:45.459Z,15.29
2022-10-19T02:56:46.841Z,15.29
2022-10-19T02:59:48.589Z,15.22
2022-10-19T03:02:50.057Z,15.15
2022-10-19T03:05:52.145Z,15.21
2022-10-19T03:08:53.572Z,15.24
2022-10-19T03:11:58.012Z,15.18
2022-10-19T03:14:59.473Z,15.08
2022-10-19T03:18:00.868Z,14.94
2022-10-19T03:21:08.138Z,14.95
2022-10-19T03:24:09.614Z,14.89
2022-10-19T03:27:11.066Z,14.82
2022-10-19T03:30:12.575Z,14.86
2022-10-19T03:33:14.129Z,14.90
2022-10-19T03:36:23.329Z,14.83
2022-10-19T03:39:24.920Z,14.84
2022-10-19T03:42:26.312Z,14.85
2022-10-19T03:45:27.726Z,14.88
2022-10-19T03:48:29.164Z,14.85
2022-10-19T03:51:31.908Z,14.86
2022-10-19T03:54:33.298Z,14.76
2022-10-19T03:57:34.975Z,14.78
2022-10-19T04:00:36.766Z,14.77
2022-10-19T04:03:38.258Z,14.73
2022-10-19T04:06:42.040Z,14.65
2022-10-19T04:09:43.502Z,14.66
2022-10-19T04:12:44.918Z,14.65
2022-10-19T04:15:46.293Z,14.71
2022-10-19T04:18:47.753Z,14.71
2022-10-19T04:21:49.438Z,14.63
2022-10-19T04:24:50.849Z,14.64
2022-10-19T04:27:52.221Z,14.61
2022-10-19T04:30:53.717Z,14.61
2022-10-19T04:33:56.104Z,14.63
2022-10-19T04:36:59.409Z,14.72
2022-10-19T04:40:00.943Z,14.71
2022-10-19T04:43:02.658Z,14.62
2022-10-19T04:46:18.461Z,14.54
2022-10-19T04:49:20.426Z,14.44
2022-10-19T04:52:21.864Z,14.39
2022-10-19T04:55:23.296Z,14.43
2022-10-19T04:58:24.790Z,14.42
2022-10-19T05:01:28.300Z,14.42
2022-10-19T05:04:29.704Z,14.45
2022-10-19T05:07:31.325Z,14.37
2022-10-19T05:10:33.000Z,14.39
2022-10-19T05:13:35.180Z,14.43
2022-10-19T05:16:36.658Z,14.41
2022-10-19T05:19:38.071Z,14.51
2022-10-19T05:22:39.998Z,14.44
2022-10-19T05:25:41.384Z,14.50
2022-10-19T05:28:47.019Z,14.55
2022-10-19T05:31:48.543Z,14.54
2022-10-19T05:34:49.952Z,14.56
2022-10-19T05:37:55.178Z,14.61
2022-10-19T05:40:56.556Z,14.58
2022-10-19T05:44:00.335Z,14.57
2022-10-19T05:47:02.161Z,14.57
2022-10-19T05:50:03.874Z,14.56
2022-10-19T05:53:05.252Z,14.57
2022-10-19T05:56:08.873Z,14.54
2022-10-19T05:59:15.310Z,14.51
2022-10-19T06:02:16.696Z,14.48
2022-10-19T06:05:18.082Z,14.49
2022-10-19T06:08:21.042Z,14.47
2022-10-19T06:11:25.650Z,14.50
2022-10-19T06:14:27.042Z,14.55
2022-10-19T06:17:29.262Z,14.53
2022-10-19T06:20:30.845Z,14.45
2022-10-19T06:23:33.447Z,14.41
2022-10-19T06:26:35.704Z,14.46
2022-10-19T06:29:37.229Z,14.38
2022-10-19T06:32:38.728Z,14.44
2022-10-19T06:35:42.310Z,14.37
2022-10-19T06:38:44.646Z,14.34
2022-10-19T06:41:46.138Z,14.29
2022-10-19T06:44:53.748Z,14.23
2022-10-19T06:47:55.198Z,14.26
2022-10-19T06:50:58.220Z,14.26
2022-10-19T06:54:00.119Z,14.32
2022-10-19T06:57:01.539Z,14.38
2022-10-19T07:00:04.650Z,14.33
2022-10-19T07:03:06.058Z,14.33
2022-10-19T07:06:10.019Z,14.35
2022-10-19T07:09:11.397Z,14.40
2022-10-19T07:12:12.829Z,14.40
2022-10-19T07:15:14.334Z,14.39
2022-10-19T07:18:15.959Z,14.40
2022-10-19T07:21:18.421Z,14.46
2022-10-19T07:24:20.041Z,14.45
2022-10-19T07:27:21.641Z,14.44
2022-10-19T07:30:23.591Z,14.52
2022-10-19T07:33:25.206Z,14.58
2022-10-19T07:36:28.168Z,14.63
2022-10-19T07:39:29.578Z,14.61
2022-10-19T07:42:31.031Z,14.55
2022-10-19T07:45:32.965Z,14.54
2022-10-19T07:48:35.240Z,14.58
2022-10-19T07:51:38.223Z,14.67
2022-10-19T07:54:39.594Z,14.62
2022-10-19T07:57:43.638Z,14.70
2022-10-19T08:00:46.395Z,14.64
2022-10-19T08:07:10.165Z,14.67
2022-10-19T08:10:11.540Z,14.75
2022-10-19T08:13:12.919Z,14.75
2022-10-19T08:16:26.528Z,14.78
2022-10-19T08:19:27.928Z,14.84
2022-10-19T08:22:29.384Z,14.84
2022-10-19T08:25:30.816Z,14.89
2022-10-19T08:28:32.275Z,14.92
2022-10-19T08:31:33.983Z,14.95
2022-10-19T08:34:35.614Z,15.09
2022-10-19T08:37:44.768Z,15.16
2022-10-19T08:40:47.330Z,15.24
2022-10-19T08:44:10.383Z,15.27
2022-10-19T08:47:23.530Z,15.28
2022-10-19T08:50:36.284Z,15.40
2022-10-19T08:53:41.016Z,15.45
2022-10-19T08:56:51.790Z,15.51
2022-10-19T09:00:26.691Z,15.49
2022-10-19T09:03:59.060Z,15.59
2022-10-19T09:07:09.623Z,15.59
2022-10-19T09:10:14.618Z,15.54
2022-10-19T09:13:17.604Z,15.53
2022-10-19T09:16:19.947Z,15.51
2022-10-19T09:19:25.876Z,15.57
2022-10-19T09:22:34.964Z,15.59
2022-10-19T09:25:38.544Z,15.65
2022-10-19T09:28:47.234Z,15.63
2022-10-19T09:31:55.488Z,15.64
2022-10-19T09:35:02.206Z,15.71
2022-10-19T09:38:06.703Z,15.74
2022-10-19T09:41:21.237Z,15.77
2022-10-19T09:44:23.983Z,15.80
2022-10-19T09:47:33.458Z,15.82
2022-10-19T09:50:35.146Z,15.75
2022-10-19T09:53:36.666Z,15.82
2022-10-19T09:56:40.551Z,15.81
2022-10-19T09:59:42.333Z,15.83
2022-10-19T10:02:50.002Z,15.89
2022-10-19T10:05:52.449Z,15.94
2022-10-19T10:08:58.920Z,15.96
2022-10-19T10:12:00.605Z,16.01
2022-10-19T10:15:05.943Z,16.07
2022-10-19T10:18:13.039Z,16.11
2022-10-19T10:21:25.437Z,16.12
2022-10-19T10:24:30.447Z,16.09
2022-10-19T10:27:35.005Z,16.12
2022-10-19T10:30:37.445Z,16.17
2022-10-19T10:33:46.432Z,16.20
2022-10-19T10:36:53.800Z,16.21
2022-10-19T10:40:00.321Z,16.28
2022-10-19T10:43:09.103Z,16.19
2022-10-19T10:46:19.913Z,16.21
2022-10-19T10:49:25.535Z,16.31
2022-10-19T10:52:31.123Z,16.28
2022-10-19T10:55:34.128Z,16.25
2022-10-19T10:58:43.516Z,16.30
2022-10-19T11:01:59.658Z,16.30
2022-10-19T11:05:26.461Z,16.38
2022-10-19T11:08:35.915Z,16.46
2022-10-19T11:11:44.938Z,16.53
2022-10-19T11:14:51.109Z,16.52
2022-10-19T11:18:24.860Z,16.57
2022-10-19T11:21:36.180Z,16.61
2022-10-19T11:24:59.718Z,16.77
2022-10-19T11:28:19.384Z,16.67
2022-10-19T11:31:33.174Z,16.67
2022-10-19T11:34:56.155Z,16.76
2022-10-19T11:38:21.357Z,16.84
2022-10-19T11:41:47.540Z,16.98
2022-10-19T11:45:08.346Z,16.86
2022-10-19T11:48:15.777Z,16.94
2022-10-19T11:51:51.913Z,17.06
2022-10-19T11:55:30.361Z,17.07
2022-10-19T11:58:39.844Z,17.08
2022-10-19T12:01:53.435Z,17.09
2022-10-19T12:05:04.420Z,17.11
2022-10-19T12:08:27.795Z,17.10
2022-10-19T12:11:47.748Z,17.17
2022-10-19T12:14:54.449Z,17.14
2022-10-19T12:18:06.896Z,17.12
2022-10-19T12:21:30.397Z,17.08
2022-10-19T12:24:34.058Z,17.14
2022-10-19T12:27:40.008Z,17.17
2022-10-19T12:30:41.491Z,17.19
2022-10-19T12:33:51.829Z,17.21
2022-10-19T12:37:18.085Z,17.19
2022-10-19T12:40:28.057Z,17.01
2022-10-19T12:43:51.450Z,16.99
2022-10-19T12:47:01.196Z,17.00
2022-10-19T12:50:02.778Z,16.97
2022-10-19T12:53:04.225Z,17.09
2022-10-19T12:56:10.013Z,17.12
2022-10-19T12:59:23.988Z,17.12
2022-10-19T13:02:29.733Z,17.06
2022-10-19T13:05:33.415Z,17.15
2022-10-19T13:08:53.167Z,17.22
2022-10-19T13:12:14.784Z,17.37
2022-10-19T13:15:37.359Z,17.42
2022-10-19T13:19:14.176Z,17.47
2022-10-19T13:22:28.520Z,17.49
2022-10-19T13:25:31.877Z,17.32
2022-10-19T13:28:37.732Z,17.44
2022-10-19T13:31:39.488Z,17.55
2022-10-19T13:34:41.142Z,17.50
2022-10-19T13:37:43.635Z,17.43
2022-10-19T13:40:51.224Z,17.56
2022-10-19T13:44:15.208Z,17.62
2022-10-19T13:47:32.533Z,17.71
2022-10-19T13:50:42.990Z,17.84
2022-10-19T13:54:07.490Z,17.96
2022-10-19T13:57:20.630Z,17.80
2022-10-19T14:00:24.604Z,17.89
2022-10-19T14:03:38.199Z,17.66
2022-10-19T14:06:50.502Z,17.62
2022-10-19T14:10:14.586Z,17.74
2022-10-19T14:13:16.087Z,17.77
2022-10-19T14:16:20.900Z,18.02
2022-10-19T14:19:47.131Z,18.20
2022-10-19T14:22:48.522Z,18.08
2022-10-19T14:26:03.724Z,17.99
2022-10-19T14:29:05.768Z,17.90
2022-10-19T14:32:09.449Z,17.91
2022-10-19T14:35:28.411Z,17.85
2022-10-19T14:38:35.130Z,17.89
2022-10-19T14:41:37.064Z,17.90
2022-10-19T14:44:43.906Z,17.83
2022-10-19T14:47:59.305Z,17.73
2022-10-19T14:51:01.165Z,17.75
2022-10-19T14:54:11.191Z,17.78
2022-10-19T14:57:17.457Z,17.69
2022-10-19T15:00:21.590Z,17.71
2022-10-19T15:03:27.431Z,17.81
2022-10-19T15:06:35.395Z,17.77
2022-10-19T15:09:48.247Z,17.69
2022-10-19T15:12:52.325Z,17.59
2022-10-19T15:15:54.748Z,17.63
2022-10-19T15:18:56.343Z,17.60
2022-10-19T15:22:21.053Z,17.67
2022-10-19T15:25:32.652Z,17.72
2022-10-19T15:28:40.703Z,17.74
2022-10-19T15:31:43.186Z,17.77
2022-10-19T15:34:46.024Z,17.59
2022-10-19T15:37:50.269Z,17.53
2022-10-19T15:40:59.893Z,17.52
2022-10-19T15:44:08.268Z,17.53
2022-10-19T15:47:15.759Z,17.58
2022-10-19T15:50:36.405Z,17.55
2022-10-19T15:53:37.809Z,17.51
2022-10-19T15:56:40.059Z,17.40
2022-10-19T15:59:41.504Z,17.34
2022-10-19T16:02:43.316Z,17.25
2022-10-19T16:05:44.985Z,17.13
2022-10-19T16:08:46.868Z,17.05
2022-10-19T16:11:48.587Z,17.08
2022-10-19T16:14:50.505Z,17.03
2022-10-19T16:18:00.255Z,16.92
2022-10-19T16:21:01.664Z,16.86
2022-10-19T16:24:03.558Z,16.80
2022-10-19T16:27:05.910Z,16.73
2022-10-19T16:30:08.129Z,16.69
2022-10-19T16:33:09.544Z,16.65
2022-10-19T16:36:11.302Z,16.63
2022-10-19T16:39:12.832Z,16.60
2022-10-19T16:42:14.236Z,16.57
2022-10-19T16:45:15.757Z,16.50
2022-10-19T16:48:19.824Z,16.42
2022-10-19T16:51:36.174Z,16.36
2022-10-19T16:54:37.554Z,16.24
2022-10-19T16:57:38.987Z,16.15
2022-10-19T17:00:40.749Z,16.07
2022-10-19T17:03:43.806Z,15.98
2022-10-19T17:06:45.221Z,15.89
2022-10-19T17:09:49.794Z,15.86
2022-10-19T17:12:53.856Z,15.84
2022-10-19T17:15:55.259Z,15.83
2022-10-19T17:18:58.224Z,15.82
2022-10-19T17:22:01.714Z,15.78
2022-10-19T17:25:03.235Z,15.75
2022-10-19T17:28:04.825Z,15.70
2022-10-19T17:31:09.118Z,15.60
2022-10-19T17:34:10.590Z,15.54
2022-10-19T17:37:11.979Z,15.52
2022-10-19T17:40:13.398Z,15.47
2022-10-19T17:43:14.835Z,15.44
2022-10-19T17:46:18.274Z,15.44
2022-10-19T17:49:19.676Z,15.32
2022-10-19T17:52:21.229Z,15.26
2022-10-19T17:58:32.043Z,15.17
2022-10-19T18:01:34.083Z,15.10
2022-10-19T18:07:38.228Z,15.05
2022-10-19T18:10:39.921Z,14.98
2022-10-19T18:13:42.007Z,14.96
2022-10-19T18:16:46.203Z,14.87
2022-10-19T18:19:47.775Z,14.87
2022-10-19T18:22:49.207Z,14.87
2022-10-19T18:25:54.364Z,14.84
2022-10-19T18:28:57.672Z,14.74
2022-10-19T18:31:59.127Z,14.67
2022-10-19T18:35:00.566Z,14.77
2022-10-19T18:38:02.789Z,14.72
2022-10-19T18:41:07.264Z,14.71
2022-10-19T18:44:12.093Z,14.76
2022-10-19T18:47:13.529Z,14.77
2022-10-19T18:50:17.337Z,14.72
2022-10-19T18:53:19.117Z,14.75
2022-10-19T18:56:22.338Z,14.72
2022-10-19T18:59:23.920Z,14.70
2022-10-19T19:02:35.250Z,14.70
2022-10-19T19:05:43.875Z,14.65
2022-10-19T19:08:45.657Z,14.66
2022-10-19T19:11:47.212Z,14.62
2022-10-19T19:14:48.673Z,14.61
2022-10-19T19:17:53.859Z,14.61
2022-10-19T19:20:55.293Z,14.60
2022-10-19T19:23:59.124Z,14.54
2022-10-19T19:27:00.572Z,14.57
2022-10-19T19:30:04.601Z,14.55
2022-10-19T19:33:06.008Z,14.54
2022-10-19T19:36:08.725Z,14.48
2022-10-19T19:39:10.116Z,14.45
2022-10-19T19:42:11.677Z,14.44
2022-10-19T19:45:13.094Z,14.42
2022-10-19T19:48:14.620Z,14.40
2022-10-19T19:51:19.128Z,14.39
2022-10-19T19:54:22.812Z,14.36
2022-10-19T19:57:24.454Z,14.35
2022-10-19T20:00:25.856Z,14.32
2022-10-19T20:03:27.245Z,14.35
2022-10-19T20:06:29.234Z,14.38
2022-10-19T20:09:30.894Z,14.36
2022-10-19T20:12:32.292Z,14.36
2022-10-19T20:15:34.157Z,14.31
2022-10-19T20:18:35.585Z,14.29
2022-10-19T20:21:37.437Z,14.27
2022-10-19T20:24:38.827Z,14.32
2022-10-19T20:27:40.242Z,14.28
2022-10-19T20:30:44.362Z,14.34
2022-10-19T20:33:47.439Z,14.29
2022-10-19T20:36:48.932Z,14.30
2022-10-19T20:39:50.385Z,14.20
2022-10-19T20:42:51.846Z,14.19
2022-10-19T20:45:53.228Z,14.18
2022-10-19T20:49:00.698Z,14.18
2022-10-19T20:52:02.522Z,14.18
2022-10-19T20:55:05.048Z,14.17
2022-10-19T20:58:06.430Z,14.19
2022-10-19T21:01:16.141Z,14.16
2022-10-19T21:04:18.138Z,14.15
2022-10-19T21:07:19.510Z,14.15
2022-10-19T21:10:20.908Z,14.13
2022-10-19T21:13:22.284Z,14.13
2022-10-19T21:16:27.417Z,14.09
2022-10-19T21:19:29.572Z,14.10
2022-10-19T21:22:34.447Z,14.09
2022-10-19T21:25:38.560Z,14.08
2022-10-19T21:28:41.678Z,14.10
2022-10-19T21:31:47.963Z,13.99
2022-10-19T21:34:50.502Z,14.03
2022-10-19T21:37:51.931Z,14.06
2022-10-19T21:40:57.990Z,14.05
2022-10-19T21:43:59.905Z,14.01
2022-10-19T21:47:01.387Z,13.95
2022-10-19T21:50:02.940Z,14.03
2022-10-19T21:53:04.363Z,13.94
2022-10-19T21:56:06.050Z,13.99
2022-10-19T21:59:07.639Z,13.93
2022-10-19T22:02:09.070Z,13.90
2022-10-19T22:05:10.513Z,13.90
2022-10-19T22:08:11.918Z,13.88
2022-10-19T22:11:14.328Z,13.92
2022-10-19T22:14:16.350Z,13.87
2022-10-19T22:17:17.763Z,13.92
2022-10-19T22:20:19.246Z,13.94
2022-10-19T22:23:20.682Z,13.94
2022-10-19T22:26:28.315Z,13.84
2022-10-19T22:29:29.718Z,13.84
2022-10-19T22:32:31.192Z,13.77
2022-10-19T22:35:32.706Z,13.74
2022-10-19T22:38:34.718Z,13.84
2022-10-19T22:41:36.119Z,13.77
2022-10-19T22:44:37.581Z,13.83
2022-10-19T22:47:38.983Z,13.80
2022-10-19T22:50:40.416Z,13.81
2022-10-19T22:53:41.953Z,13.74
2022-10-19T22:56:43.591Z,13.71
2022-10-19T22:59:44.974Z,13.69
2022-10-19T23:02:47.406Z,13.71
2022-10-19T23:05:48.778Z,13.72
2022-10-19T23:08:50.315Z,13.71
2022-10-19T23:11:51.809Z,13.65
2022-10-19T23:14:53.195Z,13.67
2022-10-19T23:17:54.910Z,13.66
2022-10-19T23:20:58.184Z,13.67
2022-10-19T23:23:59.601Z,13.55
2022-10-19T23:27:01.095Z,13.58
2022-10-19T23:30:03.951Z,13.57
2022-10-19T23:33:05.423Z,13.51
2022-10-19T23:36:10.039Z,13.53
2022-10-19T23:39:11.499Z,13.43
2022-10-19T23:42:12.879Z,13.44
2022-10-19T23:45:15.179Z,13.47
2022-10-19T23:48:16.631Z,13.46
2022-10-19T23:51:20.727Z,13.47
2022-10-19T23:54:22.485Z,13.45
2022-10-19T23:57:23.901Z,13.46
